North Windham, CT

8:00 PM EDT on August 27, 2016 (GMT -0400)
Windham | | Change Station

Elev 246 ft 41.74 °N, 72.18 °W | Updated 8 minutes ago

Scattered Clouds
Scattered Clouds
77 °F
Feels Like 77 °F
N
4
Wind Variable Wind from South

Today
High -- | Low -- °F
--% Chance of Precip.
Yesterday
High -- | Low -- °F
Precip. -- in
Pressure 30.20 in
Visibility 10.0 miles
Clouds Scattered Clouds 7000 ft
Dew Point 62 °F
Humidity 60%
Rainfall 0.00 in
Snow Depth Not available.
6:09 AM 7:29 PM
Waning Crescent, 20% visible
METAR KIJD 272352Z AUTO 17003KT 10SM SCT070 25/17 A3020 RMK AO2 SLP225 T02500167 10317 20250 53012
Pressure 30.20 in
Visibility 10.0 miles
Clouds Scattered Clouds 7000 ft
Dew Point 62 °F
Humidity 60%
Rainfall 0.00 in
Snow Depth Not available.
6:09 AM 7:29 PM
Waning Crescent, 20% visible
METAR KIJD 272352Z AUTO 17003KT 10SM SCT070 25/17 A3020 RMK AO2 SLP225 T02500167 10317 20250 53012

10-Day Weather Forecast

Almanac

Astronomy

Aug. 27, 2016 Rise Set
Actual Time
Civil Twilight
Nautical Twilight
Astronomical Twilight
Moon
Length of Visible Light
Length of Day
Tomorrow will be .
, % of the Moon is Illuminated

Today's Extremes

State Highs State Lows

Community

WunderPhotos

Upload Photos

1,935,469 photos uploaded!

WunderBlog® & News

Nearby

Air Quality

  Air Quality AQ Index Pollutant
Not available.

Snow Depth

Station Depth Elevation

Earthquake Activity

City Distance Mag. Time & Date
Minimum magnitude displayed is 2.5.

Coastal Water Temperatures

Place Temperature

Stations

Nearby Weather Stations

Station Location Temp. Windchill Dew Point Humidity Wind Precip. Elev Updated Type
                   

Watches & Warnings

There are currently no watches in effect.